Time;durP1;ratioP1;P1;durP2;ratioP2;P2;SDS_P1;SDS_P2;PMS_P1;PMS_P2;Temp;Humidity;BMP_temperature;BMP_pressure;BME280_temperature;BME280_humidity;BME280_pressure;Samples;Min_cycle;Max_cycle;Signal;HPM_P1;HPM_P2
2022/03/13 00:00:40;;;;;;;1.38;1.33;;;6.00;73.90;;;;;;6348133;22;20365;-72
2022/03/13 00:03:13;;;;;;;8.45;1.65;;;5.90;74.20;;;;;;6211334;23;20009;-72
2022/03/13 00:05:42;;;;;;;1.63;1.40;;;5.90;74.80;;;;;;6303034;22;20007;-72
2022/03/13 00:08:27;;;;;;;1.65;1.55;;;5.90;75.10;;;;;;6337488;22;20086;-72
2022/03/13 00:11:07;;;;;;;0.17;0.17;;;5.90;73.70;;;;;;6347704;22;20018;-72
2022/03/13 00:13:36;;;;;;;0.00;0.00;;;5.90;73.00;;;;;;6347925;22;20015;-72
2022/03/13 00:16:11;;;;;;;0.70;0.70;;;5.80;72.80;;;;;;6347775;22;20006;-72
2022/03/13 00:18:44;;;;;;;0.63;0.63;;;5.80;72.80;;;;;;6309664;22;20013;-72
2022/03/13 00:21:10;;;;;;;0.35;0.35;;;5.80;72.70;;;;;;6347492;22;20006;-72
2022/03/13 00:23:36;;;;;;;2.63;2.30;;;5.70;72.90;;;;;;6347403;22;20033;-71
2022/03/13 00:26:04;;;;;;;2.92;2.72;;;5.70;73.20;;;;;;6337514;22;20006;-72
2022/03/13 00:28:30;;;;;;;0.35;0.35;;;5.70;73.40;;;;;;6347750;22;20378;-72
2022/03/13 00:30:56;;;;;;;1.35;0.98;;;5.60;73.40;;;;;;6337363;22;20017;-72
2022/03/13 00:33:23;;;;;;;1.10;1.05;;;5.60;73.70;;;;;;6347649;22;20030;-72
2022/03/13 00:35:49;;;;;;;0.20;0.20;;;5.50;74.00;;;;;;6347727;22;20491;-72
2022/03/13 00:38:15;;;;;;;2.00;1.42;;;5.50;74.40;;;;;;6320123;22;20424;-72
2022/03/13 00:40:41;;;;;;;0.45;0.45;;;5.40;74.60;;;;;;6347766;22;20006;-71
2022/03/13 00:43:07;;;;;;;0.30;0.30;;;5.40;74.70;;;;;;6347520;22;20009;-71
2022/03/13 00:45:33;;;;;;;6.53;1.98;;;5.30;74.70;;;;;;6347454;22;20017;-72
2022/03/13 00:47:59;;;;;;;2.28;0.90;;;5.30;74.60;;;;;;6347488;22;20067;-72
2022/03/13 00:50:25;;;;;;;0.20;0.20;;;5.20;74.70;;;;;;6347773;22;20100;-72
2022/03/13 00:52:57;;;;;;;0.40;0.40;;;5.20;75.00;;;;;;6347126;22;20021;-72
2022/03/13 00:55:23;;;;;;;1.95;1.85;;;5.20;75.20;;;;;;6319888;22;20003;-72
2022/03/13 00:57:48;;;;;;;1.40;1.30;;;5.10;75.50;;;;;;6347411;22;20111;-72
2022/03/13 01:00:15;;;;;;;2.58;2.38;;;5.10;75.60;;;;;;6347143;22;19999;-71
2022/03/13 01:02:41;;;;;;;1.33;1.25;;;5.10;75.70;;;;;;6347331;22;20011;-72
2022/03/13 01:05:11;;;;;;;0.20;0.20;;;5.00;75.90;;;;;;6347297;22;20049;-72
2022/03/13 01:07:39;;;;;;;0.10;0.10;;;5.00;76.20;;;;;;6347468;22;20003;-72
2022/03/13 01:10:08;;;;;;;2.10;1.95;;;5.00;76.50;;;;;;6347371;22;20085;-72
2022/03/13 01:12:35;;;;;;;1.35;0.93;;;5.00;76.60;;;;;;6347227;22;20007;-72
2022/03/13 01:15:01;;;;;;;1.98;1.85;;;5.00;76.90;;;;;;6319541;22;20254;-72
2022/03/13 01:17:27;;;;;;;0.52;0.52;;;5.00;77.00;;;;;;6347470;22;20031;-72
2022/03/13 01:19:52;;;;;;;3.03;1.75;;;4.90;77.00;;;;;;6336748;22;20038;-72
2022/03/13 01:22:18;;;;;;;7.55;5.43;;;4.90;77.40;;;;;;6347332;22;20011;-72
2022/03/13 01:24:45;;;;;;;5.93;1.10;;;4.90;78.00;;;;;;6347350;22;20030;-72
2022/03/13 01:27:16;;;;;;;0.20;0.20;;;5.00;78.10;;;;;;6347038;22;20343;-72
2022/03/13 01:29:45;;;;;;;2.13;1.33;;;4.90;78.30;;;;;;6309157;22;20007;-72
2022/03/13 01:32:13;;;;;;;0.47;0.47;;;4.90;78.50;;;;;;6346961;22;20018;-71
2022/03/13 01:34:43;;;;;;;1.00;1.00;;;4.90;79.00;;;;;;6347156;22;20043;-71
2022/03/13 01:37:19;;;;;;;0.40;0.40;;;4.90;79.50;;;;;;6337089;22;20439;-72
2022/03/13 01:39:45;;;;;;;0.20;0.20;;;4.80;79.60;;;;;;6347363;22;20015;-72
2022/03/13 01:42:11;;;;;;;1.73;0.93;;;4.70;80.10;;;;;;6336972;22;20064;-71
2022/03/13 01:44:37;;;;;;;1.20;1.10;;;4.70;80.40;;;;;;6319678;22;20003;-71
2022/03/13 01:47:05;;;;;;;2.75;2.13;;;4.70;80.40;;;;;;6336906;22;20076;-72
2022/03/13 01:49:31;;;;;;;3.08;1.73;;;4.80;80.60;;;;;;6319764;22;20002;-71
2022/03/13 01:51:57;;;;;;;0.57;0.55;;;4.70;80.50;;;;;;6346755;22;20011;-71
2022/03/13 01:54:24;;;;;;;0.10;0.10;;;4.70;80.70;;;;;;6337032;22;20011;-71
2022/03/13 01:56:50;;;;;;;0.20;0.20;;;4.70;81.20;;;;;;6336974;22;20011;-72
2022/03/13 01:59:17;;;;;;;1.75;1.25;;;4.60;81.60;;;;;;6346948;22;20010;-72
2022/03/13 02:01:44;;;;;;;3.15;2.67;;;4.60;81.90;;;;;;6336629;22;20011;-71
2022/03/13 02:04:12;;;;;;;0.28;0.28;;;4.60;81.90;;;;;;6346977;22;20056;-71
2022/03/13 02:06:39;;;;;;;0.00;0.00;;;4.60;82.10;;;;;;6347140;22;20010;-71
2022/03/13 02:09:07;;;;;;;1.25;0.57;;;4.60;82.10;;;;;;6346879;22;20443;-71
2022/03/13 02:11:38;;;;;;;2.05;1.58;;;4.50;82.00;;;;;;6348275;22;20019;-71
2022/03/13 02:14:05;;;;;;;1.48;1.38;;;4.50;82.30;;;;;;6348808;22;20002;-71
2022/03/13 02:16:31;;;;;;;3.20;2.35;;;4.50;82.50;;;;;;6321930;22;20416;-71
2022/03/13 02:18:57;;;;;;;0.40;0.40;;;4.60;82.40;;;;;;6311169;22;19995;-71
2022/03/13 02:21:28;;;;;;;1.38;1.27;;;4.60;82.50;;;;;;6321081;22;20078;-71
2022/03/13 02:24:06;;;;;;;0.10;0.10;;;4.50;82.80;;;;;;6311304;22;20321;-72
2022/03/13 02:26:33;;;;;;;5.30;4.40;;;4.50;83.40;;;;;;6338874;22;20064;-71
2022/03/13 02:28:59;;;;;;;0.20;0.20;;;4.40;83.60;;;;;;6320921;22;20041;-71
2022/03/13 02:31:36;;;;;;;1.92;1.80;;;4.30;84.00;;;;;;6348915;22;20075;-71
2022/03/13 02:34:04;;;;;;;2.30;1.08;;;4.30;84.40;;;;;;6348688;22;20011;-71
2022/03/13 02:36:36;;;;;;;0.63;0.43;;;4.30;84.30;;;;;;6349106;22;20094;-71
2022/03/13 02:39:04;;;;;;;0.85;0.85;;;4.30;84.90;;;;;;6348706;22;20335;-71
2022/03/13 02:41:32;;;;;;;1.38;1.27;;;4.20;85.00;;;;;;6348552;22;20007;-71
2022/03/13 02:43:58;;;;;;;2.75;1.95;;;4.20;85.10;;;;;;6348590;22;20006;-71
2022/03/13 02:46:49;;;;;;;1.42;1.33;;;4.20;85.70;;;;;;6242324;23;20015;-71
2022/03/13 02:49:17;;;;;;;;;;;4.10;86.00;;;;;;6231841;23;20034;-71
2022/03/13 02:51:44;;;;;;;4.07;3.78;;;3.90;87.30;;;;;;6252387;23;19953;-71
2022/03/13 02:54:11;;;;;;;0.40;0.40;;;3.80;87.60;;;;;;6217026;23;20465;-71
2022/03/13 02:56:37;;;;;;;1.38;1.27;;;3.60;88.40;;;;;;6227366;23;20000;-71
2022/03/13 02:59:03;;;;;;;2.03;1.85;;;3.50;89.70;;;;;;6216836;23;20016;-71
2022/03/13 03:01:29;;;;;;;0.22;0.22;;;3.60;88.70;;;;;;6252542;23;20012;-71
2022/03/13 03:03:59;;;;;;;2.55;2.30;;;3.70;87.70;;;;;;6242146;23;20004;-71
2022/03/13 03:06:28;;;;;;;0.10;0.10;;;3.80;88.00;;;;;;6242373;23;20043;-71
2022/03/13 03:08:54;;;;;;;0.10;0.10;;;3.70;88.90;;;;;;6252535;23;20043;-71
2022/03/13 03:11:20;;;;;;;0.52;0.52;;;3.70;88.50;;;;;;6252385;23;20011;-71
2022/03/13 03:13:46;;;;;;;13.68;2.72;;;3.60;88.40;;;;;;6252300;23;20016;-71
2022/03/13 03:16:12;;;;;;;0.50;0.50;;;3.50;88.30;;;;;;6243252;22;20028;-71
2022/03/13 03:18:38;;;;;;;0.75;0.75;;;3.50;88.00;;;;;;6338195;22;19999;-71
2022/03/13 03:21:04;;;;;;;13.45;1.65;;;3.60;88.00;;;;;;6337960;22;20003;-71
2022/03/13 03:23:31;;;;;;;0.75;0.75;;;3.60;89.00;;;;;;6337930;22;20108;-71
2022/03/13 03:25:57;;;;;;;0.20;0.20;;;3.70;88.00;;;;;;6348448;22;20009;-71
2022/03/13 03:28:23;;;;;;;3.10;2.80;;;3.80;86.80;;;;;;6337744;22;20042;-71
2022/03/13 03:30:49;;;;;;;1.52;1.42;;;3.90;86.20;;;;;;6348212;22;20014;-71
2022/03/13 03:33:15;;;;;;;0.43;0.43;;;3.90;86.50;;;;;;6337803;22;20009;-71
2022/03/13 03:35:41;;;;;;;1.30;1.20;;;3.90;86.60;;;;;;6348336;22;20074;-71
2022/03/13 03:38:07;;;;;;;0.45;0.45;;;3.90;86.60;;;;;;6347999;22;20074;-71
2022/03/13 03:40:34;;;;;;;1.52;1.42;;;4.00;86.60;;;;;;6337781;22;20011;-71
2022/03/13 03:43:04;;;;;;;3.90;0.80;;;3.90;86.70;;;;;;6348117;22;20017;-71
2022/03/13 03:45:31;;;;;;;0.47;0.43;;;3.70;89.00;;;;;;6348102;22;20006;-71
2022/03/13 03:47:58;;;;;;;0.13;0.13;;;3.60;90.70;;;;;;6348240;22;20042;-71
2022/03/13 03:50:24;;;;;;;1.38;1.33;;;3.60;90.60;;;;;;6337777;22;20434;-71
2022/03/13 03:52:55;;;;;;;0.70;0.70;;;3.40;91.50;;;;;;6347897;22;20569;-71
2022/03/13 03:55:24;;;;;;;;;;;3.60;89.00;;;;;;6295978;22;20014;-71
2022/03/13 03:57:51;;;;;;;2.95;2.53;;;3.70;88.30;;;;;;6348389;22;19914;-71
2022/03/13 04:00:18;;;;;;;2.25;2.15;;;3.70;88.10;;;;;;6347745;22;20003;-71
2022/03/13 04:02:44;;;;;;;0.13;0.13;;;3.60;89.70;;;;;;6347914;22;20007;-71
2022/03/13 04:05:11;;;;;;;0.70;0.70;;;3.60;90.00;;;;;;6337638;22;20071;-71
2022/03/13 04:07:37;;;;;;;2.65;1.13;;;3.60;88.00;;;;;;6338034;22;20007;-71
2022/03/13 04:10:05;;;;;;;1.17;1.08;;;3.70;86.40;;;;;;6320190;22;20010;-71
2022/03/13 04:12:34;;;;;;;0.55;0.40;;;3.70;86.00;;;;;;6337971;22;20026;-71
2022/03/13 04:15:04;;;;;;;0.00;0.00;;;3.80;85.70;;;;;;6347659;22;20003;-71
2022/03/13 04:17:30;;;;;;;0.10;0.10;;;3.80;85.00;;;;;;6348090;22;20549;-71
2022/03/13 04:19:55;;;;;;;0.50;0.50;;;3.80;85.00;;;;;;6347799;22;20034;-71
2022/03/13 04:22:21;;;;;;;0.38;0.38;;;3.80;84.90;;;;;;6347704;22;20398;-71
2022/03/13 04:24:47;;;;;;;0.57;0.57;;;3.80;85.20;;;;;;6347550;22;20030;-71
2022/03/13 04:27:13;;;;;;;0.93;0.90;;;3.80;85.70;;;;;;6337575;22;20435;-71
2022/03/13 04:29:40;;;;;;;0.50;0.50;;;3.70;86.10;;;;;;6337671;22;20068;-71
2022/03/13 04:32:08;;;;;;;0.75;0.75;;;3.60;86.80;;;;;;6319981;22;20056;-71
2022/03/13 04:34:35;;;;;;;0.90;0.90;;;3.60;87.30;;;;;;6346957;22;20018;-72
2022/03/13 04:37:00;;;;;;;4.95;3.50;;;3.50;87.80;;;;;;6337768;22;20034;-71
2022/03/13 04:39:28;;;;;;;0.85;0.85;;;3.40;88.40;;;;;;6337253;22;20003;-71
2022/03/13 04:41:54;;;;;;;2.50;2.30;;;3.40;88.90;;;;;;6337561;22;20038;-71
2022/03/13 04:44:21;;;;;;;0.22;0.22;;;3.30;89.20;;;;;;6337301;22;20003;-71
2022/03/13 04:46:46;;;;;;;0.40;0.40;;;3.20;90.00;;;;;;6337580;22;20419;-71
2022/03/13 04:49:13;;;;;;;0.10;0.10;;;3.10;90.40;;;;;;6347476;22;20057;-72
2022/03/13 04:51:40;;;;;;;0.43;0.40;;;3.10;90.60;;;;;;6347383;22;20014;-71
2022/03/13 04:54:07;;;;;;;2.95;2.75;;;3.00;90.70;;;;;;6347386;22;20006;-71
2022/03/13 04:56:33;;;;;;;1.60;1.50;;;3.00;90.60;;;;;;6347357;22;20006;-71
2022/03/13 04:59:00;;;;;;;0.43;0.43;;;2.90;90.60;;;;;;6347503;22;20093;-71
2022/03/13 05:01:26;;;;;;;0.30;0.30;;;2.90;90.80;;;;;;6319843;22;20014;-71
2022/03/13 05:03:53;;;;;;;1.17;1.17;;;2.90;90.80;;;;;;6319833;22;20006;-71
2022/03/13 05:06:19;;;;;;;0.47;0.47;;;2.90;90.80;;;;;;6347240;22;20011;-71
2022/03/13 05:08:45;;;;;;;5.82;1.58;;;2.80;90.90;;;;;;6347503;22;20035;-71
2022/03/13 05:11:11;;;;;;;2.78;1.60;;;2.90;90.60;;;;;;6337006;22;20010;-71
2022/03/13 05:13:37;;;;;;;0.20;0.20;;;2.90;90.50;;;;;;6347430;22;19998;-71
2022/03/13 05:16:03;;;;;;;4.30;1.67;;;2.90;90.30;;;;;;6337249;22;20014;-71
2022/03/13 05:18:29;;;;;;;4.38;1.75;;;2.90;90.40;;;;;;6337092;22;20110;-71
2022/03/13 05:20:56;;;;;;;0.65;0.65;;;2.80;90.30;;;;;;6347155;22;20006;-71
2022/03/13 05:23:22;;;;;;;0.20;0.20;;;2.80;90.40;;;;;;6337106;22;20056;-72
2022/03/13 05:25:48;;;;;;;0.20;0.20;;;2.80;90.60;;;;;;6309168;22;20007;-72
2022/03/13 05:28:14;;;;;;;1.45;1.23;;;2.80;91.00;;;;;;6336873;22;20011;-72
2022/03/13 05:30:42;;;;;;;0.90;0.90;;;2.80;91.00;;;;;;6337164;22;20006;-71
2022/03/13 05:33:08;;;;;;;0.10;0.10;;;2.80;91.10;;;;;;6347039;22;20003;-71
2022/03/13 05:35:34;;;;;;;1.27;1.20;;;2.80;91.30;;;;;;6341612;22;20007;-71
2022/03/13 05:38:00;;;;;;;2.17;1.10;;;2.80;91.30;;;;;;6337123;22;20090;-70
2022/03/13 05:40:27;;;;;;;0.57;0.57;;;2.80;91.40;;;;;;6336792;22;20003;-71
2022/03/13 05:42:57;;;;;;;0.40;0.40;;;2.80;91.40;;;;;;6347234;22;20083;-70
2022/03/13 05:45:25;;;;;;;3.10;1.98;;;2.80;91.50;;;;;;6347112;22;20074;-71
2022/03/13 05:47:58;;;;;;;0.47;0.47;;;2.80;91.70;;;;;;6349398;22;20007;-71
2022/03/13 05:50:27;;;;;;;5.35;4.43;;;2.80;91.80;;;;;;6349024;22;20625;-71
2022/03/13 05:52:55;;;;;;;0.10;0.10;;;2.70;91.90;;;;;;6349179;22;20060;-71
2022/03/13 05:55:22;;;;;;;0.10;0.10;;;2.60;92.80;;;;;;6349080;22;20139;-71
2022/03/13 05:57:48;;;;;;;0.30;0.30;;;2.60;92.90;;;;;;6349154;22;20003;-72
2022/03/13 06:00:15;;;;;;;0.28;0.28;;;2.60;92.90;;;;;;6349032;22;20053;-71
2022/03/13 06:02:46;;;;;;;0.73;0.68;;;2.70;92.60;;;;;;6349203;22;20327;-71
2022/03/13 06:05:15;;;;;;;0.73;0.73;;;2.70;92.60;;;;;;6348980;22;20007;-71
2022/03/13 06:07:41;;;;;;;3.65;3.35;;;2.60;93.00;;;;;;6339001;22;20060;-71
2022/03/13 06:10:08;;;;;;;0.13;0.13;;;2.40;94.70;;;;;;6349009;22;20007;-70
2022/03/13 06:12:35;;;;;;;0.10;0.10;;;2.20;95.40;;;;;;6338813;22;20026;-71
2022/03/13 06:15:05;;;;;;;0.43;0.43;;;2.30;95.20;;;;;;6349135;22;20483;-72
2022/03/13 06:17:31;;;;;;;0.52;0.52;;;2.30;95.30;;;;;;6348710;22;20421;-72
2022/03/13 06:19:57;;;;;;;3.40;1.65;;;2.30;95.40;;;;;;6349145;22;20006;-72
2022/03/13 06:22:24;;;;;;;1.45;1.40;;;2.40;96.30;;;;;;6348744;22;20072;-72
2022/03/13 06:24:51;;;;;;;1.17;1.17;;;2.50;96.00;;;;;;6349016;22;20030;-73
2022/03/13 06:27:17;;;;;;;4.85;2.10;;;2.60;95.70;;;;;;6348562;22;20011;-72
2022/03/13 06:29:44;;;;;;;2.42;2.28;;;2.50;95.80;;;;;;6321569;22;20485;-75
2022/03/13 06:32:10;;;;;;;4.30;3.95;;;2.40;96.50;;;;;;6338379;22;20011;-73
2022/03/13 06:34:37;;;;;;;3.05;2.83;;;2.50;96.20;;;;;;6348794;22;20328;-73
2022/03/13 06:37:04;;;;;;;21.27;5.05;;;2.60;96.70;;;;;;6321541;22;20007;-75
2022/03/13 06:39:30;;;;;;;0.10;0.10;;;2.50;96.00;;;;;;6348532;22;20010;-75
2022/03/13 06:41:56;;;;;;;0.20;0.20;;;2.60;96.00;;;;;;6321050;22;20006;-79
2022/03/13 06:44:23;;;;;;;0.10;0.10;;;2.60;95.90;;;;;;6337966;22;20328;-70
2022/03/13 06:46:49;;;;;;;0.47;0.47;;;2.60;96.40;;;;;;6348789;22;20007;-72
2022/03/13 06:49:14;;;;;;;0.28;0.28;;;2.70;96.10;;;;;;6338386;22;20056;-74
2022/03/13 06:51:40;;;;;;;0.10;0.10;;;2.50;97.30;;;;;;6338187;22;20042;-72
2022/03/13 06:54:09;;;;;;;0.80;0.80;;;2.50;97.30;;;;;;6310712;22;20007;-75
2022/03/13 06:56:35;;;;;;;0.10;0.10;;;2.60;97.40;;;;;;6320764;22;20026;-71
2022/03/13 06:59:05;;;;;;;0.45;0.45;;;2.70;96.40;;;;;;6310967;22;20003;-73
2022/03/13 07:01:34;;;;;;;4.75;1.65;;;2.80;96.40;;;;;;6348148;22;20090;-70
2022/03/13 07:04:01;;;;;;;6.45;4.10;;;2.90;95.80;;;;;;6320941;22;20086;-70
2022/03/13 07:06:27;;;;;;;1.65;1.55;;;3.10;94.80;;;;;;6284210;22;20387;-75
2022/03/13 07:08:53;;;;;;;0.10;0.10;;;3.10;94.70;;;;;;6348443;22;20006;-74
2022/03/13 07:11:19;;;;;;;0.35;0.35;;;3.20;93.40;;;;;;6337977;22;20030;-74
2022/03/13 07:13:45;;;;;;;0.25;0.25;;;3.40;92.30;;;;;;6348428;22;20053;-73
2022/03/13 07:16:15;;;;;;;0.90;0.90;;;3.50;91.80;;;;;;6348080;22;20309;-71
2022/03/13 07:18:45;;;;;;;1.30;1.05;;;3.60;91.50;;;;;;6348137;22;20013;-69
2022/03/13 07:21:12;;;;;;;2.58;2.35;;;3.70;91.40;;;;;;6337530;22;20007;-70
2022/03/13 07:23:38;;;;;;;1.48;1.38;;;3.80;90.70;;;;;;6348024;22;20011;-71
2022/03/13 07:26:04;;;;;;;0.00;0.00;;;3.90;90.50;;;;;;6337733;22;20026;-71
2022/03/13 07:28:31;;;;;;;2.13;0.77;;;4.00;90.40;;;;;;6347477;22;20034;-72
2022/03/13 07:30:57;;;;;;;2.13;2.00;;;4.00;89.50;;;;;;6346597;22;20121;-74
2022/03/13 07:33:23;;;;;;;0.60;0.60;;;4.00;88.80;;;;;;6337265;22;20436;-75
2022/03/13 07:35:49;;;;;;;0.20;0.20;;;4.10;86.90;;;;;;6348283;22;20007;-72
2022/03/13 07:38:16;;;;;;;0.45;0.45;;;4.10;87.80;;;;;;6337508;22;20068;-72
2022/03/13 07:40:43;;;;;;;0.55;0.55;;;4.30;87.90;;;;;;6337440;22;20015;-73
2022/03/13 07:43:09;;;;;;;0.10;0.10;;;4.40;87.60;;;;;;6337823;22;20013;-70
2022/03/13 07:45:35;;;;;;;1.33;1.23;;;4.40;86.90;;;;;;6337072;22;20432;-68
2022/03/13 07:48:01;;;;;;;2.70;1.77;;;4.50;86.50;;;;;;6338068;22;19999;-76
2022/03/13 07:50:29;;;;;;;9.73;8.05;;;4.80;94.50;;;;;;6347948;22;20006;-73
2022/03/13 07:52:55;;;;;;;18.83;8.30;;;4.80;91.30;;;;;;6348793;22;20022;-75
2022/03/13 07:55:22;;;;;;;0.25;0.25;;;5.00;91.40;;;;;;6348389;22;20006;-82
2022/03/13 07:57:51;;;;;;;0.70;0.70;;;5.10;87.80;;;;;;6347680;22;20064;-70
2022/03/13 08:00:18;;;;;;;0.95;0.95;;;5.20;85.00;;;;;;6337430;22;20003;-69
2022/03/13 08:02:46;;;;;;;4.05;2.20;;;5.30;84.80;;;;;;6347745;22;20014;-69
2022/03/13 08:05:23;;;;;;;0.40;0.32;;;5.20;84.30;;;;;;6347931;22;20077;-78
2022/03/13 08:07:52;;;;;;;1.40;1.30;;;5.40;85.40;;;;;;6322149;22;20011;-76
2022/03/13 08:10:23;;;;;;;0.30;0.30;;;5.60;85.30;;;;;;6337308;22;20006;-75
2022/03/13 08:12:51;;;;;;;0.10;0.10;;;5.70;84.90;;;;;;6337761;22;20007;-78
2022/03/13 08:15:17;;;;;;;1.20;1.13;;;5.80;84.20;;;;;;6347506;22;20305;-78
2022/03/13 08:17:43;;;;;;;1.20;1.02;;;6.00;84.20;;;;;;6347608;22;20013;-82
2022/03/13 08:20:10;;;;;;;5.68;1.45;;;6.10;83.50;;;;;;6337772;22;20011;-81
2022/03/13 08:22:37;;;;;;;0.65;0.65;;;6.10;80.30;;;;;;6347560;22;20060;-76
2022/03/13 08:25:04;;;;;;;2.75;1.00;;;6.30;81.00;;;;;;6347632;22;20451;-73
2022/03/13 08:27:30;;;;;;;3.10;1.85;;;6.50;80.30;;;;;;6336887;22;20022;-74
2022/03/13 08:29:55;;;;;;;0.35;0.35;;;6.60;78.30;;;;;;6347703;22;20002;-73
2022/03/13 08:32:21;;;;;;;1.63;1.52;;;6.60;78.40;;;;;;6347029;22;20502;-75
2022/03/13 08:34:48;;;;;;;1.10;1.02;;;6.80;77.50;;;;;;6337547;22;20010;-75
2022/03/13 08:37:15;;;;;;;2.17;1.48;;;6.90;77.40;;;;;;6347368;22;20378;-75
2022/03/13 08:39:41;;;;;;;2.55;2.35;;;7.10;76.70;;;;;;6320234;22;20057;-76
2022/03/13 08:42:07;;;;;;;4.18;1.50;;;7.20;77.60;;;;;;6337189;22;20041;-76
2022/03/13 08:44:33;;;;;;;0.45;0.45;;;7.40;76.70;;;;;;6336991;22;20063;-77
2022/03/13 08:46:59;;;;;;;0.73;0.73;;;7.40;74.40;;;;;;6309132;22;20429;-76
2022/03/13 08:49:26;;;;;;;0.20;0.20;;;7.60;73.90;;;;;;6346855;22;20604;-77
2022/03/13 08:51:52;;;;;;;0.65;0.65;;;7.70;72.50;;;;;;6336937;22;20011;-76
2022/03/13 08:54:17;;;;;;;0.22;0.22;;;7.90;72.00;;;;;;6319422;22;20435;-77
2022/03/13 08:56:45;;;;;;;1.60;1.50;;;8.10;73.70;;;;;;6336979;22;20003;-75
2022/03/13 08:59:15;;;;;;;0.65;0.65;;;8.30;72.70;;;;;;6346650;22;20014;-77
2022/03/13 09:01:42;;;;;;;1.95;1.35;;;8.50;71.40;;;;;;6347225;22;20075;-79
2022/03/13 09:04:08;;;;;;;0.38;0.38;;;8.70;69.80;;;;;;6283590;22;20010;-80
2022/03/13 09:06:33;;;;;;;1.05;1.02;;;8.80;68.90;;;;;;6336731;22;20089;-77
2022/03/13 09:08:59;;;;;;;5.82;2.55;;;8.90;69.10;;;;;;6336713;22;20033;-77
2022/03/13 09:11:28;;;;;;;0.50;0.50;;;9.00;66.60;;;;;;6346713;22;20007;-81
2022/03/13 09:13:54;;;;;;;0.35;0.35;;;9.10;66.20;;;;;;6336969;22;20006;-86
2022/03/13 09:16:20;;;;;;;7.05;1.27;;;9.20;68.30;;;;;;6337435;22;20095;-78
2022/03/13 09:18:45;;;;;;;0.77;0.77;;;9.40;67.00;;;;;;6336704;22;20005;-76
2022/03/13 09:21:11;;;;;;;0.73;0.73;;;9.30;65.20;;;;;;6346816;22;20010;-76
2022/03/13 09:23:37;;;;;;;0.45;0.45;;;9.40;64.90;;;;;;6336549;22;20010;-75
2022/03/13 09:26:03;;;;;;;1.70;1.15;;;9.80;66.90;;;;;;6319039;22;20014;-76
2022/03/13 09:28:29;;;;;;;1.85;1.17;;;10.00;63.30;;;;;;6336624;22;20789;-76
2022/03/13 09:30:56;;;;;;;0.75;0.75;;;9.70;63.30;;;;;;6346665;22;20406;-68
2022/03/13 09:33:22;;;;;;;0.38;0.38;;;9.70;64.40;;;;;;6335512;22;20014;-74
2022/03/13 09:35:48;;;;;;;2.17;1.42;;;9.70;63.60;;;;;;6346736;22;20002;-73
2022/03/13 09:38:16;;;;;;;0.25;0.25;;;9.80;64.20;;;;;;6346537;22;20488;-74
2022/03/13 09:40:42;;;;;;;7.55;3.72;;;9.80;62.90;;;;;;6336860;22;20007;-74
2022/03/13 09:43:08;;;;;;;1.77;1.65;;;10.10;63.10;;;;;;6346738;22;20011;-74
2022/03/13 09:45:34;;;;;;;1.20;1.10;;;10.30;62.70;;;;;;6336627;22;20041;-73
2022/03/13 09:48:03;;;;;;;0.75;0.70;;;10.30;62.10;;;;;;6346705;22;20378;-73
2022/03/13 09:50:29;;;;;;;0.10;0.10;;;10.30;62.70;;;;;;6309378;22;20407;-72
2022/03/13 09:52:55;;;;;;;1.75;1.65;;;10.60;62.10;;;;;;6336201;22;20019;-73
2022/03/13 09:55:21;;;;;;;1.85;1.17;;;10.70;64.40;;;;;;6336497;22;20319;-73
2022/03/13 09:57:48;;;;;;;0.98;0.98;;;10.80;61.50;;;;;;6346737;22;20006;-73
2022/03/13 10:00:18;;;;;;;2.00;1.77;;;10.90;63.40;;;;;;6309239;22;20010;-73
2022/03/13 10:02:44;;;;;;;0.90;0.90;;;11.00;61.80;;;;;;6346565;22;20094;-74
2022/03/13 10:05:17;;;;;;;0.85;0.85;;;10.90;60.00;;;;;;6346741;22;20009;-73
2022/03/13 10:07:55;;;;;;;1.45;1.05;;;10.90;61.10;;;;;;6309266;22;20010;-73
2022/03/13 10:10:23;;;;;;;0.13;0.13;;;11.30;61.50;;;;;;6346758;22;20003;-73
2022/03/13 10:12:49;;;;;;;0.08;0.08;;;11.50;58.70;;;;;;6336401;22;20335;-74
2022/03/13 10:15:15;;;;;;;2.08;1.88;;;11.70;59.70;;;;;;6346845;22;20021;-75
2022/03/13 10:17:42;;;;;;;0.47;0.47;;;11.40;59.40;;;;;;6308483;22;20013;-70
2022/03/13 10:20:20;;;;;;;0.60;0.60;;;11.50;60.70;;;;;;6346728;22;20007;-70
2022/03/13 10:23:10;;;;;;;3.38;1.05;;;11.20;60.60;;;;;;6346902;22;20010;-69
2022/03/13 10:25:41;;;;;;;1.13;1.02;;;11.30;61.40;;;;;;6294395;22;20355;-70
2022/03/13 10:28:31;;;;;;;5.95;3.72;;;11.40;60.90;;;;;;6319297;22;20034;-70
2022/03/13 10:31:00;;;;;;;4.72;1.75;;;11.90;60.00;;;;;;6346640;22;20003;-70
2022/03/13 10:33:28;;;;;;;0.30;0.30;;;12.40;58.70;;;;;;6347842;22;20010;-70
2022/03/13 10:36:31;;;;;;;0.32;0.30;;;12.80;58.50;;;;;;6338308;22;20428;-70
2022/03/13 10:38:59;;;;;;;2.97;2.30;;;12.80;57.40;;;;;;6243539;22;20014;-70
2022/03/13 10:41:49;;;;;;;2.45;1.80;;;12.50;58.50;;;;;;6348438;22;20007;-70
2022/03/13 10:44:22;;;;;;;0.57;0.55;;;13.10;57.70;;;;;;6338413;22;20008;-70
2022/03/13 10:47:01;;;;;;;0.08;0.08;;;13.40;58.30;;;;;;6348574;22;20038;-70
2022/03/13 10:49:43;;;;;;;4.90;3.53;;;13.60;57.30;;;;;;6348434;22;20005;-70
2022/03/13 10:52:29;;;;;;;1.25;0.90;;;14.00;57.30;;;;;;6348314;22;20053;-70
2022/03/13 10:55:24;;;;;;;2.30;1.30;;;14.00;57.60;;;;;;6338177;22;20007;-70
2022/03/13 10:57:55;;;;;;;0.60;0.47;;;13.90;56.70;;;;;;6322028;22;20014;-71
2022/03/13 11:00:23;;;;;;;13.77;1.60;;;14.50;54.80;;;;;;6338015;22;20007;-70
2022/03/13 11:02:49;;;;;;;1.90;1.75;;;14.30;54.50;;;;;;6348437;22;20011;-71
2022/03/13 11:05:16;;;;;;;0.80;0.80;;;14.00;54.10;;;;;;6310415;22;20003;-71
2022/03/13 11:07:42;;;;;;;2.28;2.00;;;13.90;55.50;;;;;;6337753;22;20010;-71
2022/03/13 11:10:11;;;;;;;1.65;1.50;;;13.70;56.00;;;;;;6320868;22;20330;-71
2022/03/13 11:12:40;;;;;;;0.68;0.68;;;14.20;55.70;;;;;;6311118;22;20067;-71
2022/03/13 11:15:09;;;;;;;2.05;1.33;;;14.40;55.30;;;;;;6348138;22;20048;-71
2022/03/13 11:17:36;;;;;;;0.60;0.60;;;14.30;55.20;;;;;;6320665;22;20007;-71
2022/03/13 11:20:05;;;;;;;0.43;0.43;;;14.00;54.80;;;;;;6338199;22;20006;-71
2022/03/13 11:22:31;;;;;;;0.60;0.60;;;13.80;56.30;;;;;;6348096;22;20011;-71
2022/03/13 11:25:08;;;;;;;1.05;1.00;;;13.80;55.40;;;;;;6348158;22;20030;-72
2022/03/13 11:27:38;;;;;;;0.65;0.65;;;14.00;56.70;;;;;;6348277;22;20127;-66
2022/03/13 11:30:08;;;;;;;0.82;0.77;;;13.90;56.30;;;;;;6320326;22;20053;-74
2022/03/13 11:32:45;;;;;;;0.47;0.47;;;14.20;56.10;;;;;;6347898;22;20045;-75
2022/03/13 11:35:17;;;;;;;1.42;1.33;;;14.40;55.10;;;;;;6337852;22;20036;-75
2022/03/13 11:38:14;;;;;;;2.45;1.02;;;14.60;55.50;;;;;;6338350;22;20018;-82
2022/03/13 11:40:41;;;;;;;6.90;2.50;;;14.10;56.40;;;;;;6348005;22;20378;-77
2022/03/13 11:43:08;;;;;;;1.20;0.73;;;13.80;56.80;;;;;;6337762;22;20007;-76
2022/03/13 11:45:39;;;;;;;1.52;1.42;;;13.90;56.80;;;;;;6347833;22;20434;-75
2022/03/13 11:48:05;;;;;;;;;;;14.00;57.10;;;;;;6338156;22;20381;-66
2022/03/13 11:50:58;;;;;;;2.03;1.38;;;13.80;56.30;;;;;;6337258;22;19906;-76
2022/03/13 11:53:24;;;;;;;1.65;1.55;;;13.90;56.60;;;;;;6337300;22;20045;-63
2022/03/13 11:56:10;;;;;;;1.77;1.65;;;14.20;58.60;;;;;;6337414;22;20031;-63
2022/03/13 11:58:45;;;;;;;3.05;1.65;;;14.70;55.80;;;;;;6337716;22;20407;-63
2022/03/13 12:01:30;;;;;;;0.88;0.88;;;15.00;56.30;;;;;;6337560;22;20011;-63
2022/03/13 12:04:04;;;;;;;1.20;1.02;;;15.70;55.90;;;;;;6337669;22;20015;-66
2022/03/13 12:06:42;;;;;;;1.80;1.50;;;16.90;53.50;;;;;;6347850;22;20059;-63
2022/03/13 12:09:08;;;;;;;0.93;0.88;;;17.20;52.30;;;;;;6347934;22;20447;-71
2022/03/13 12:12:03;;;;;;;5.35;1.35;;;18.00;51.80;;;;;;6337375;22;20003;-67
2022/03/13 12:14:57;;;;;;;4.28;2.00;;;19.10;49.40;;;;;;6320453;22;20469;-63
2022/03/13 12:17:29;;;;;;;2.47;1.77;;;17.60;49.00;;;;;;6337445;22;20059;-63
2022/03/13 12:19:58;;;;;;;7.55;2.20;;;16.50;51.10;;;;;;6337626;22;20006;-62
2022/03/13 12:22:25;;;;;;;12.20;1.58;;;16.30;51.80;;;;;;6347715;22;20015;-62
2022/03/13 12:24:57;;;;;;;1.38;1.27;;;16.60;52.20;;;;;;6347735;22;20080;-70
2022/03/13 12:27:24;;;;;;;1.08;0.88;;;17.30;50.30;;;;;;6347787;22;20601;-67
2022/03/13 12:29:58;;;;;;;4.53;2.60;;;17.10;50.10;;;;;;6319960;22;20015;-68
2022/03/13 12:32:33;;;;;;;2.63;1.90;;;16.80;51.40;;;;;;6319635;22;20014;-68
2022/03/13 12:35:01;;;;;;;0.57;0.57;;;16.30;50.90;;;;;;6347743;22;20007;-64
2022/03/13 12:37:27;;;;;;;0.70;0.70;;;16.40;51.40;;;;;;6337281;22;20006;-62
2022/03/13 12:40:00;;;;;;;1.10;0.93;;;16.30;52.50;;;;;;6309942;22;20477;-63
2022/03/13 12:42:30;;;;;;;2.35;1.38;;;16.40;51.10;;;;;;6310066;22;20094;-63
2022/03/13 12:45:12;;;;;;;3.80;2.03;;;16.70;51.40;;;;;;6347778;22;20014;-63
2022/03/13 12:47:42;;;;;;;2.50;1.23;;;18.30;50.10;;;;;;6309276;22;20303;-63
2022/03/13 12:50:11;;;;;;;2.75;1.33;;;18.90;49.20;;;;;;6337599;22;20003;-63
2022/03/13 12:52:39;;;;;;;4.25;2.42;;;19.30;48.40;;;;;;6336342;22;20082;-64
2022/03/13 12:55:08;;;;;;;2.55;2.35;;;19.00;49.10;;;;;;6336520;22;20474;-65
2022/03/13 12:57:35;;;;;;;2.65;1.17;;;19.60;56.50;;;;;;6347096;22;19999;-65
2022/03/13 13:00:04;;;;;;;0.82;0.82;;;18.30;51.60;;;;;;6337185;22;20396;-65
2022/03/13 13:02:34;;;;;;;3.03;2.58;;;18.10;51.10;;;;;;6346921;22;20093;-65